sensor_id;sensor_type;location;lat;lon;timestamp;P1;durP1;ratioP1;P2;durP2;ratioP2
3491;SDS011;1760;52.480;13.422;2024-02-28T00:01:28;13.17;;;7.20;;
3491;SDS011;1760;52.480;13.422;2024-02-28T00:03:55;17.10;;;8.00;;
3491;SDS011;1760;52.480;13.422;2024-02-28T00:06:22;17.73;;;7.20;;
3491;SDS011;1760;52.480;13.422;2024-02-28T00:08:48;14.53;;;8.70;;
3491;SDS011;1760;52.480;13.422;2024-02-28T00:11:16;16.20;;;8.80;;
3491;SDS011;1760;52.480;13.422;2024-02-28T00:13:44;18.10;;;8.50;;
3491;SDS011;1760;52.480;13.422;2024-02-28T00:16:11;15.13;;;8.53;;
3491;SDS011;1760;52.480;13.422;2024-02-28T00:18:38;17.40;;;7.57;;
3491;SDS011;1760;52.480;13.422;2024-02-28T00:21:05;19.63;;;8.40;;
3491;SDS011;1760;52.480;13.422;2024-02-28T00:23:31;21.77;;;8.60;;
3491;SDS011;1760;52.480;13.422;2024-02-28T00:25:58;15.87;;;7.73;;
3491;SDS011;1760;52.480;13.422;2024-02-28T00:28:26;21.30;;;9.60;;
3491;SDS011;1760;52.480;13.422;2024-02-28T00:30:55;16.03;;;8.50;;
3491;SDS011;1760;52.480;13.422;2024-02-28T00:33:21;20.60;;;9.27;;
3491;SDS011;1760;52.480;13.422;2024-02-28T00:35:48;19.67;;;8.73;;
3491;SDS011;1760;52.480;13.422;2024-02-28T00:38:15;20.43;;;8.20;;
3491;SDS011;1760;52.480;13.422;2024-02-28T00:40:42;12.90;;;7.97;;
3491;SDS011;1760;52.480;13.422;2024-02-28T00:43:09;18.70;;;7.93;;
3491;SDS011;1760;52.480;13.422;2024-02-28T00:45:36;18.10;;;8.40;;
3491;SDS011;1760;52.480;13.422;2024-02-28T00:48:05;19.07;;;8.60;;
3491;SDS011;1760;52.480;13.422;2024-02-28T00:50:32;17.50;;;7.77;;
3491;SDS011;1760;52.480;13.422;2024-02-28T00:52:59;13.13;;;7.13;;
3491;SDS011;1760;52.480;13.422;2024-02-28T00:55:26;17.63;;;7.50;;
3491;SDS011;1760;52.480;13.422;2024-02-28T00:57:53;20.10;;;8.00;;
3491;SDS011;1760;52.480;13.422;2024-02-28T01:00:20;20.30;;;8.30;;
3491;SDS011;1760;52.480;13.422;2024-02-28T01:02:47;15.53;;;7.73;;
3491;SDS011;1760;52.480;13.422;2024-02-28T01:05:15;15.27;;;7.70;;
3491;SDS011;1760;52.480;13.422;2024-02-28T01:07:42;13.07;;;6.17;;
3491;SDS011;1760;52.480;13.422;2024-02-28T01:10:09;17.53;;;7.60;;
3491;SDS011;1760;52.480;13.422;2024-02-28T01:12:36;14.37;;;8.03;;
3491;SDS011;1760;52.480;13.422;2024-02-28T01:15:03;18.13;;;7.03;;
3491;SDS011;1760;52.480;13.422;2024-02-28T01:17:30;33.10;;;8.67;;
3491;SDS011;1760;52.480;13.422;2024-02-28T01:19:57;15.57;;;9.73;;
3491;SDS011;1760;52.480;13.422;2024-02-28T01:22:26;22.83;;;9.37;;
3491;SDS011;1760;52.480;13.422;2024-02-28T01:24:52;17.30;;;6.37;;
3491;SDS011;1760;52.480;13.422;2024-02-28T01:27:19;15.00;;;7.50;;
3491;SDS011;1760;52.480;13.422;2024-02-28T01:29:46;16.87;;;7.10;;
3491;SDS011;1760;52.480;13.422;2024-02-28T01:32:13;16.13;;;7.37;;
3491;SDS011;1760;52.480;13.422;2024-02-28T01:34:40;22.50;;;8.83;;
3491;SDS011;1760;52.480;13.422;2024-02-28T01:37:07;18.33;;;8.50;;
3491;SDS011;1760;52.480;13.422;2024-02-28T01:39:35;19.57;;;8.27;;
3491;SDS011;1760;52.480;13.422;2024-02-28T01:42:02;14.77;;;6.77;;
3491;SDS011;1760;52.480;13.422;2024-02-28T01:44:29;10.50;;;6.57;;
3491;SDS011;1760;52.480;13.422;2024-02-28T01:46:56;19.73;;;7.57;;
3491;SDS011;1760;52.480;13.422;2024-02-28T01:49:23;19.83;;;7.50;;
3491;SDS011;1760;52.480;13.422;2024-02-28T01:51:51;19.13;;;8.27;;
3491;SDS011;1760;52.480;13.422;2024-02-28T01:54:21;26.90;;;8.83;;
3491;SDS011;1760;52.480;13.422;2024-02-28T01:56:50;17.40;;;7.63;;
3491;SDS011;1760;52.480;13.422;2024-02-28T01:59:17;13.33;;;6.97;;
3491;SDS011;1760;52.480;13.422;2024-02-28T02:01:44;19.60;;;7.73;;
3491;SDS011;1760;52.480;13.422;2024-02-28T02:04:12;17.60;;;7.90;;
3491;SDS011;1760;52.480;13.422;2024-02-28T02:06:39;15.37;;;8.83;;
3491;SDS011;1760;52.480;13.422;2024-02-28T02:09:10;21.50;;;7.33;;
3491;SDS011;1760;52.480;13.422;2024-02-28T02:11:37;15.10;;;7.30;;
3491;SDS011;1760;52.480;13.422;2024-02-28T02:14:06;20.30;;;9.20;;
3491;SDS011;1760;52.480;13.422;2024-02-28T02:16:36;21.83;;;8.90;;
3491;SDS011;1760;52.480;13.422;2024-02-28T02:19:03;19.67;;;8.00;;
3491;SDS011;1760;52.480;13.422;2024-02-28T02:21:30;18.23;;;9.07;;
3491;SDS011;1760;52.480;13.422;2024-02-28T02:24:02;15.47;;;7.73;;
3491;SDS011;1760;52.480;13.422;2024-02-28T02:26:29;16.87;;;8.13;;
3491;SDS011;1760;52.480;13.422;2024-02-28T02:28:56;21.83;;;9.67;;
3491;SDS011;1760;52.480;13.422;2024-02-28T02:31:22;17.07;;;6.83;;
3491;SDS011;1760;52.480;13.422;2024-02-28T02:33:49;17.43;;;8.67;;
3491;SDS011;1760;52.480;13.422;2024-02-28T02:36:16;11.70;;;6.13;;
3491;SDS011;1760;52.480;13.422;2024-02-28T02:38:43;13.77;;;7.70;;
3491;SDS011;1760;52.480;13.422;2024-02-28T02:41:11;17.67;;;8.60;;
3491;SDS011;1760;52.480;13.422;2024-02-28T02:43:38;15.50;;;7.90;;
3491;SDS011;1760;52.480;13.422;2024-02-28T02:46:05;25.10;;;9.13;;
3491;SDS011;1760;52.480;13.422;2024-02-28T02:48:32;17.80;;;8.07;;
3491;SDS011;1760;52.480;13.422;2024-02-28T02:50:59;15.20;;;7.50;;
3491;SDS011;1760;52.480;13.422;2024-02-28T02:53:26;15.60;;;7.37;;
3491;SDS011;1760;52.480;13.422;2024-02-28T02:55:53;12.87;;;7.03;;
3491;SDS011;1760;52.480;13.422;2024-02-28T02:58:21;12.07;;;6.60;;
3491;SDS011;1760;52.480;13.422;2024-02-28T03:00:48;12.00;;;6.50;;
3491;SDS011;1760;52.480;13.422;2024-02-28T03:03:15;12.80;;;6.30;;
3491;SDS011;1760;52.480;13.422;2024-02-28T03:05:42;12.57;;;6.67;;
3491;SDS011;1760;52.480;13.422;2024-02-28T03:08:08;13.50;;;6.57;;
3491;SDS011;1760;52.480;13.422;2024-02-28T03:10:36;14.03;;;7.33;;
3491;SDS011;1760;52.480;13.422;2024-02-28T03:13:03;14.00;;;4.80;;
3491;SDS011;1760;52.480;13.422;2024-02-28T03:15:33;7.93;;;4.60;;
3491;SDS011;1760;52.480;13.422;2024-02-28T03:18:00;9.80;;;4.10;;
3491;SDS011;1760;52.480;13.422;2024-02-28T03:20:27;10.63;;;5.13;;
3491;SDS011;1760;52.480;13.422;2024-02-28T03:22:54;9.30;;;4.77;;
3491;SDS011;1760;52.480;13.422;2024-02-28T03:25:20;11.13;;;5.87;;
3491;SDS011;1760;52.480;13.422;2024-02-28T03:27:47;16.33;;;7.30;;
3491;SDS011;1760;52.480;13.422;2024-02-28T03:30:14;12.63;;;6.17;;
3491;SDS011;1760;52.480;13.422;2024-02-28T03:32:43;12.60;;;7.00;;
3491;SDS011;1760;52.480;13.422;2024-02-28T03:35:12;14.77;;;8.30;;
3491;SDS011;1760;52.480;13.422;2024-02-28T03:37:39;13.67;;;6.43;;
3491;SDS011;1760;52.480;13.422;2024-02-28T03:40:06;12.63;;;6.17;;
3491;SDS011;1760;52.480;13.422;2024-02-28T03:42:34;15.07;;;6.53;;
3491;SDS011;1760;52.480;13.422;2024-02-28T03:45:01;15.30;;;6.30;;
3491;SDS011;1760;52.480;13.422;2024-02-28T03:47:28;11.83;;;5.83;;
3491;SDS011;1760;52.480;13.422;2024-02-28T03:49:56;11.33;;;6.53;;
3491;SDS011;1760;52.480;13.422;2024-02-28T03:52:24;10.10;;;5.83;;
3491;SDS011;1760;52.480;13.422;2024-02-28T03:54:51;9.00;;;4.83;;
3491;SDS011;1760;52.480;13.422;2024-02-28T03:57:18;14.00;;;6.90;;
3491;SDS011;1760;52.480;13.422;2024-02-28T03:59:45;11.80;;;6.47;;
3491;SDS011;1760;52.480;13.422;2024-02-28T04:02:12;11.30;;;5.90;;
3491;SDS011;1760;52.480;13.422;2024-02-28T04:04:39;9.47;;;5.13;;
3491;SDS011;1760;52.480;13.422;2024-02-28T04:07:07;8.30;;;4.97;;
3491;SDS011;1760;52.480;13.422;2024-02-28T04:09:34;10.63;;;4.93;;
3491;SDS011;1760;52.480;13.422;2024-02-28T04:12:01;9.50;;;5.20;;
3491;SDS011;1760;52.480;13.422;2024-02-28T04:14:28;9.00;;;4.07;;
3491;SDS011;1760;52.480;13.422;2024-02-28T04:16:55;8.03;;;3.20;;
3491;SDS011;1760;52.480;13.422;2024-02-28T04:19:22;8.30;;;3.30;;
3491;SDS011;1760;52.480;13.422;2024-02-28T04:21:48;7.00;;;3.70;;
3491;SDS011;1760;52.480;13.422;2024-02-28T04:24:17;8.80;;;3.73;;
3491;SDS011;1760;52.480;13.422;2024-02-28T04:26:44;6.37;;;3.67;;
3491;SDS011;1760;52.480;13.422;2024-02-28T04:29:10;10.33;;;4.40;;
3491;SDS011;1760;52.480;13.422;2024-02-28T04:31:41;6.37;;;3.03;;
3491;SDS011;1760;52.480;13.422;2024-02-28T04:34:08;8.80;;;4.07;;
3491;SDS011;1760;52.480;13.422;2024-02-28T04:36:35;8.97;;;4.60;;
3491;SDS011;1760;52.480;13.422;2024-02-28T04:39:02;8.37;;;3.90;;
3491;SDS011;1760;52.480;13.422;2024-02-28T04:41:33;6.17;;;3.70;;
3491;SDS011;1760;52.480;13.422;2024-02-28T04:44:00;10.60;;;4.30;;
3491;SDS011;1760;52.480;13.422;2024-02-28T04:46:26;7.47;;;3.63;;
3491;SDS011;1760;52.480;13.422;2024-02-28T04:48:53;6.70;;;3.50;;
3491;SDS011;1760;52.480;13.422;2024-02-28T04:51:20;7.17;;;4.17;;
3491;SDS011;1760;52.480;13.422;2024-02-28T04:53:47;7.77;;;3.90;;
3491;SDS011;1760;52.480;13.422;2024-02-28T04:56:14;7.33;;;3.97;;
3491;SDS011;1760;52.480;13.422;2024-02-28T04:58:42;7.20;;;4.23;;
3491;SDS011;1760;52.480;13.422;2024-02-28T05:01:09;11.63;;;3.60;;
3491;SDS011;1760;52.480;13.422;2024-02-28T05:03:38;10.53;;;5.10;;
3491;SDS011;1760;52.480;13.422;2024-02-28T05:06:04;8.77;;;4.43;;
3491;SDS011;1760;52.480;13.422;2024-02-28T05:08:32;6.00;;;3.87;;
3491;SDS011;1760;52.480;13.422;2024-02-28T05:10:58;5.83;;;3.40;;
3491;SDS011;1760;52.480;13.422;2024-02-28T05:13:25;9.07;;;3.37;;
3491;SDS011;1760;52.480;13.422;2024-02-28T05:15:54;6.97;;;3.60;;
3491;SDS011;1760;52.480;13.422;2024-02-28T05:18:20;8.20;;;3.93;;
3491;SDS011;1760;52.480;13.422;2024-02-28T05:20:47;5.83;;;3.40;;
3491;SDS011;1760;52.480;13.422;2024-02-28T05:23:14;6.03;;;3.60;;
3491;SDS011;1760;52.480;13.422;2024-02-28T05:25:41;7.37;;;4.07;;
3491;SDS011;1760;52.480;13.422;2024-02-28T05:28:08;6.83;;;4.00;;
3491;SDS011;1760;52.480;13.422;2024-02-28T05:30:35;7.93;;;4.30;;
3491;SDS011;1760;52.480;13.422;2024-02-28T05:33:04;6.43;;;3.50;;
3491;SDS011;1760;52.480;13.422;2024-02-28T05:35:30;5.67;;;3.30;;
3491;SDS011;1760;52.480;13.422;2024-02-28T05:37:57;7.57;;;4.27;;
3491;SDS011;1760;52.480;13.422;2024-02-28T05:40:24;7.23;;;3.50;;
3491;SDS011;1760;52.480;13.422;2024-02-28T05:42:53;5.87;;;3.40;;
3491;SDS011;1760;52.480;13.422;2024-02-28T05:45:20;8.97;;;4.10;;
3491;SDS011;1760;52.480;13.422;2024-02-28T05:47:47;9.57;;;4.27;;
3491;SDS011;1760;52.480;13.422;2024-02-28T05:50:15;6.10;;;4.40;;
3491;SDS011;1760;52.480;13.422;2024-02-28T05:52:42;6.23;;;3.33;;
3491;SDS011;1760;52.480;13.422;2024-02-28T05:55:09;6.47;;;3.63;;
3491;SDS011;1760;52.480;13.422;2024-02-28T05:57:36;8.37;;;4.10;;
3491;SDS011;1760;52.480;13.422;2024-02-28T06:00:04;7.00;;;3.10;;
3491;SDS011;1760;52.480;13.422;2024-02-28T06:02:35;6.07;;;2.93;;
3491;SDS011;1760;52.480;13.422;2024-02-28T06:05:02;6.90;;;3.50;;
3491;SDS011;1760;52.480;13.422;2024-02-28T06:07:31;5.40;;;3.20;;
3491;SDS011;1760;52.480;13.422;2024-02-28T06:09:57;8.03;;;4.93;;
3491;SDS011;1760;52.480;13.422;2024-02-28T06:12:24;8.97;;;5.37;;
3491;SDS011;1760;52.480;13.422;2024-02-28T06:14:51;15.03;;;6.50;;
3491;SDS011;1760;52.480;13.422;2024-02-28T06:17:20;17.00;;;6.97;;
3491;SDS011;1760;52.480;13.422;2024-02-28T06:19:46;18.47;;;7.80;;
3491;SDS011;1760;52.480;13.422;2024-02-28T06:22:13;14.77;;;7.30;;
3491;SDS011;1760;52.480;13.422;2024-02-28T06:24:41;11.73;;;6.73;;
3491;SDS011;1760;52.480;13.422;2024-02-28T06:27:08;15.70;;;8.03;;
3491;SDS011;1760;52.480;13.422;2024-02-28T06:29:37;16.70;;;8.47;;
3491;SDS011;1760;52.480;13.422;2024-02-28T06:32:04;14.43;;;7.93;;
3491;SDS011;1760;52.480;13.422;2024-02-28T06:34:31;12.97;;;6.90;;
3491;SDS011;1760;52.480;13.422;2024-02-28T06:36:58;16.13;;;7.77;;
3491;SDS011;1760;52.480;13.422;2024-02-28T06:39:25;17.83;;;7.47;;
3491;SDS011;1760;52.480;13.422;2024-02-28T06:41:53;12.07;;;8.03;;
3491;SDS011;1760;52.480;13.422;2024-02-28T06:44:20;14.50;;;7.10;;
3491;SDS011;1760;52.480;13.422;2024-02-28T06:46:47;14.63;;;8.30;;
3491;SDS011;1760;52.480;13.422;2024-02-28T06:49:14;13.60;;;7.90;;
3491;SDS011;1760;52.480;13.422;2024-02-28T06:51:41;15.10;;;9.07;;
3491;SDS011;1760;52.480;13.422;2024-02-28T06:54:09;18.30;;;7.43;;
3491;SDS011;1760;52.480;13.422;2024-02-28T06:56:36;14.40;;;7.27;;
3491;SDS011;1760;52.480;13.422;2024-02-28T06:59:04;19.43;;;7.53;;
3491;SDS011;1760;52.480;13.422;2024-02-28T07:01:32;16.07;;;8.43;;
3491;SDS011;1760;52.480;13.422;2024-02-28T07:03:59;17.23;;;8.53;;
3491;SDS011;1760;52.480;13.422;2024-02-28T07:06:26;12.27;;;5.87;;
3491;SDS011;1760;52.480;13.422;2024-02-28T07:08:52;14.00;;;8.07;;
3491;SDS011;1760;52.480;13.422;2024-02-28T07:11:19;11.23;;;6.43;;
3491;SDS011;1760;52.480;13.422;2024-02-28T07:13:47;10.30;;;5.43;;
3491;SDS011;1760;52.480;13.422;2024-02-28T07:16:14;13.90;;;6.63;;
3491;SDS011;1760;52.480;13.422;2024-02-28T07:18:41;8.87;;;5.70;;
3491;SDS011;1760;52.480;13.422;2024-02-28T07:21:08;15.03;;;7.13;;
3491;SDS011;1760;52.480;13.422;2024-02-28T07:23:35;12.73;;;6.03;;
3491;SDS011;1760;52.480;13.422;2024-02-28T07:26:04;12.13;;;6.17;;
3491;SDS011;1760;52.480;13.422;2024-02-28T07:28:31;12.10;;;6.20;;
3491;SDS011;1760;52.480;13.422;2024-02-28T07:30:58;10.63;;;6.00;;
3491;SDS011;1760;52.480;13.422;2024-02-28T07:33:26;9.03;;;5.47;;
3491;SDS011;1760;52.480;13.422;2024-02-28T07:35:53;11.00;;;6.47;;
3491;SDS011;1760;52.480;13.422;2024-02-28T07:38:22;13.73;;;7.00;;
3491;SDS011;1760;52.480;13.422;2024-02-28T07:40:52;10.73;;;5.80;;
3491;SDS011;1760;52.480;13.422;2024-02-28T07:43:19;9.43;;;5.73;;
3491;SDS011;1760;52.480;13.422;2024-02-28T07:45:46;12.80;;;6.47;;
3491;SDS011;1760;52.480;13.422;2024-02-28T07:48:13;10.80;;;4.93;;
3491;SDS011;1760;52.480;13.422;2024-02-28T07:50:43;10.10;;;5.40;;
3491;SDS011;1760;52.480;13.422;2024-02-28T07:53:10;10.93;;;5.67;;
3491;SDS011;1760;52.480;13.422;2024-02-28T07:55:38;12.10;;;5.90;;
3491;SDS011;1760;52.480;13.422;2024-02-28T07:58:05;9.87;;;5.87;;
3491;SDS011;1760;52.480;13.422;2024-02-28T08:00:32;7.37;;;4.20;;
3491;SDS011;1760;52.480;13.422;2024-02-28T08:02:59;7.83;;;4.80;;
3491;SDS011;1760;52.480;13.422;2024-02-28T08:05:26;6.90;;;4.40;;
3491;SDS011;1760;52.480;13.422;2024-02-28T08:07:54;11.40;;;5.60;;
3491;SDS011;1760;52.480;13.422;2024-02-28T08:10:21;9.00;;;5.33;;
3491;SDS011;1760;52.480;13.422;2024-02-28T08:12:48;8.73;;;4.60;;
3491;SDS011;1760;52.480;13.422;2024-02-28T08:15:15;10.90;;;5.73;;
3491;SDS011;1760;52.480;13.422;2024-02-28T08:17:42;11.50;;;7.13;;
3491;SDS011;1760;52.480;13.422;2024-02-28T08:20:09;16.17;;;7.17;;
3491;SDS011;1760;52.480;13.422;2024-02-28T08:22:37;14.37;;;7.13;;
3491;SDS011;1760;52.480;13.422;2024-02-28T08:25:05;11.30;;;7.00;;
3491;SDS011;1760;52.480;13.422;2024-02-28T08:27:36;13.60;;;8.03;;
3491;SDS011;1760;52.480;13.422;2024-02-28T08:30:04;9.93;;;6.43;;
3491;SDS011;1760;52.480;13.422;2024-02-28T08:32:32;9.60;;;6.10;;
3491;SDS011;1760;52.480;13.422;2024-02-28T08:34:59;10.90;;;5.90;;
3491;SDS011;1760;52.480;13.422;2024-02-28T08:37:26;8.57;;;5.43;;
3491;SDS011;1760;52.480;13.422;2024-02-28T08:39:54;9.53;;;4.70;;
3491;SDS011;1760;52.480;13.422;2024-02-28T08:42:24;10.07;;;5.43;;
3491;SDS011;1760;52.480;13.422;2024-02-28T08:44:51;8.63;;;4.00;;
3491;SDS011;1760;52.480;13.422;2024-02-28T08:47:22;10.77;;;5.97;;
3491;SDS011;1760;52.480;13.422;2024-02-28T08:49:51;14.13;;;7.90;;
3491;SDS011;1760;52.480;13.422;2024-02-28T08:52:20;8.63;;;5.40;;
3491;SDS011;1760;52.480;13.422;2024-02-28T08:54:47;11.20;;;5.67;;
3491;SDS011;1760;52.480;13.422;2024-02-28T08:57:14;7.33;;;4.40;;
3491;SDS011;1760;52.480;13.422;2024-02-28T08:59:43;5.73;;;3.83;;
3491;SDS011;1760;52.480;13.422;2024-02-28T09:02:10;6.77;;;3.90;;
3491;SDS011;1760;52.480;13.422;2024-02-28T09:04:37;5.90;;;3.30;;
3491;SDS011;1760;52.480;13.422;2024-02-28T09:07:04;8.90;;;3.87;;
3491;SDS011;1760;52.480;13.422;2024-02-28T09:09:31;9.17;;;4.20;;
3491;SDS011;1760;52.480;13.422;2024-02-28T09:12:02;6.60;;;3.73;;
3491;SDS011;1760;52.480;13.422;2024-02-28T09:14:30;10.00;;;4.67;;
3491;SDS011;1760;52.480;13.422;2024-02-28T09:16:58;8.93;;;5.37;;
3491;SDS011;1760;52.480;13.422;2024-02-28T09:19:28;11.50;;;6.73;;
3491;SDS011;1760;52.480;13.422;2024-02-28T09:21:55;9.23;;;4.47;;
3491;SDS011;1760;52.480;13.422;2024-02-28T09:24:22;8.97;;;5.43;;
3491;SDS011;1760;52.480;13.422;2024-02-28T09:26:49;12.77;;;4.97;;
3491;SDS011;1760;52.480;13.422;2024-02-28T09:29:16;17.57;;;7.43;;
3491;SDS011;1760;52.480;13.422;2024-02-28T09:31:43;15.20;;;7.10;;
3491;SDS011;1760;52.480;13.422;2024-02-28T09:34:11;14.00;;;7.13;;
3491;SDS011;1760;52.480;13.422;2024-02-28T09:36:40;13.50;;;7.50;;
3491;SDS011;1760;52.480;13.422;2024-02-28T09:39:10;13.53;;;6.40;;
3491;SDS011;1760;52.480;13.422;2024-02-28T09:41:37;11.93;;;5.80;;
3491;SDS011;1760;52.480;13.422;2024-02-28T09:44:05;16.13;;;6.80;;
3491;SDS011;1760;52.480;13.422;2024-02-28T09:46:33;14.97;;;6.17;;
3491;SDS011;1760;52.480;13.422;2024-02-28T09:49:01;13.63;;;7.53;;
3491;SDS011;1760;52.480;13.422;2024-02-28T09:51:31;12.40;;;7.00;;
3491;SDS011;1760;52.480;13.422;2024-02-28T09:54:00;10.27;;;5.57;;
3491;SDS011;1760;52.480;13.422;2024-02-28T09:56:27;18.53;;;7.17;;
3491;SDS011;1760;52.480;13.422;2024-02-28T09:58:54;13.27;;;6.67;;
3491;SDS011;1760;52.480;13.422;2024-02-28T10:01:22;18.33;;;8.10;;
3491;SDS011;1760;52.480;13.422;2024-02-28T10:03:50;11.53;;;7.53;;
3491;SDS011;1760;52.480;13.422;2024-02-28T10:06:18;15.70;;;6.40;;
3491;SDS011;1760;52.480;13.422;2024-02-28T10:08:46;18.73;;;5.97;;
3491;SDS011;1760;52.480;13.422;2024-02-28T10:11:17;19.63;;;9.17;;
3491;SDS011;1760;52.480;13.422;2024-02-28T10:13:45;18.80;;;8.63;;
3491;SDS011;1760;52.480;13.422;2024-02-28T10:16:13;14.13;;;7.87;;
3491;SDS011;1760;52.480;13.422;2024-02-28T10:18:41;15.97;;;9.10;;
3491;SDS011;1760;52.480;13.422;2024-02-28T10:21:08;21.97;;;8.63;;
3491;SDS011;1760;52.480;13.422;2024-02-28T10:23:37;12.47;;;7.10;;
3491;SDS011;1760;52.480;13.422;2024-02-28T10:26:08;15.80;;;7.40;;
3491;SDS011;1760;52.480;13.422;2024-02-28T10:28:36;17.93;;;9.13;;
3491;SDS011;1760;52.480;13.422;2024-02-28T10:31:03;19.43;;;8.23;;
3491;SDS011;1760;52.480;13.422;2024-02-28T10:33:30;21.30;;;10.60;;
3491;SDS011;1760;52.480;13.422;2024-02-28T10:35:58;22.33;;;10.40;;
3491;SDS011;1760;52.480;13.422;2024-02-28T10:38:26;20.30;;;9.50;;
3491;SDS011;1760;52.480;13.422;2024-02-28T10:40:53;19.97;;;8.90;;
3491;SDS011;1760;52.480;13.422;2024-02-28T10:43:22;15.67;;;8.60;;
3491;SDS011;1760;52.480;13.422;2024-02-28T10:45:52;15.70;;;8.47;;
3491;SDS011;1760;52.480;13.422;2024-02-28T10:48:21;27.80;;;10.70;;
3491;SDS011;1760;52.480;13.422;2024-02-28T10:50:49;24.80;;;13.23;;
3491;SDS011;1760;52.480;13.422;2024-02-28T10:53:20;22.43;;;9.90;;
3491;SDS011;1760;52.480;13.422;2024-02-28T10:55:49;18.07;;;8.23;;
3491;SDS011;1760;52.480;13.422;2024-02-28T10:58:17;17.40;;;9.17;;
3491;SDS011;1760;52.480;13.422;2024-02-28T11:00:48;19.70;;;9.17;;
3491;SDS011;1760;52.480;13.422;2024-02-28T11:03:16;23.73;;;11.47;;
3491;SDS011;1760;52.480;13.422;2024-02-28T11:05:44;19.10;;;9.73;;
3491;SDS011;1760;52.480;13.422;2024-02-28T11:08:19;18.43;;;10.83;;
3491;SDS011;1760;52.480;13.422;2024-02-28T11:18:35;14.50;;;9.27;;
3491;SDS011;1760;52.480;13.422;2024-02-28T11:29:09;17.30;;;9.20;;
3491;SDS011;1760;52.480;13.422;2024-02-28T11:31:36;18.00;;;10.10;;
3491;SDS011;1760;52.480;13.422;2024-02-28T11:34:07;18.80;;;9.20;;
3491;SDS011;1760;52.480;13.422;2024-02-28T11:36:36;19.60;;;9.60;;
3491;SDS011;1760;52.480;13.422;2024-02-28T11:39:05;16.53;;;9.97;;
3491;SDS011;1760;52.480;13.422;2024-02-28T11:41:32;16.50;;;8.07;;
3491;SDS011;1760;52.480;13.422;2024-02-28T11:43:59;16.13;;;8.93;;
3491;SDS011;1760;52.480;13.422;2024-02-28T11:46:26;18.23;;;9.40;;
3491;SDS011;1760;52.480;13.422;2024-02-28T11:48:53;14.50;;;7.77;;
3491;SDS011;1760;52.480;13.422;2024-02-28T11:51:22;25.53;;;10.20;;
3491;SDS011;1760;52.480;13.422;2024-02-28T11:53:48;19.50;;;9.63;;
3491;SDS011;1760;52.480;13.422;2024-02-28T11:56:16;15.50;;;9.33;;
3491;SDS011;1760;52.480;13.422;2024-02-28T11:58:49;12.80;;;7.83;;
3491;SDS011;1760;52.480;13.422;2024-02-28T12:01:16;18.03;;;9.00;;
3491;SDS011;1760;52.480;13.422;2024-02-28T12:03:44;17.43;;;8.80;;
3491;SDS011;1760;52.480;13.422;2024-02-28T12:06:11;13.97;;;8.40;;
3491;SDS011;1760;52.480;13.422;2024-02-28T12:08:40;16.23;;;8.77;;
3491;SDS011;1760;52.480;13.422;2024-02-28T12:11:07;16.70;;;9.77;;
3491;SDS011;1760;52.480;13.422;2024-02-28T12:13:36;17.93;;;10.07;;
3491;SDS011;1760;52.480;13.422;2024-02-28T12:16:03;14.47;;;7.40;;
3491;SDS011;1760;52.480;13.422;2024-02-28T12:18:31;18.47;;;8.30;;
3491;SDS011;1760;52.480;13.422;2024-02-28T12:20:57;12.17;;;7.30;;
3491;SDS011;1760;52.480;13.422;2024-02-28T12:23:24;16.43;;;7.40;;
3491;SDS011;1760;52.480;13.422;2024-02-28T12:25:53;15.77;;;8.10;;
3491;SDS011;1760;52.480;13.422;2024-02-28T12:28:20;15.03;;;8.90;;
3491;SDS011;1760;52.480;13.422;2024-02-28T12:30:46;16.90;;;8.97;;
3491;SDS011;1760;52.480;13.422;2024-02-28T12:33:13;13.60;;;8.90;;
3491;SDS011;1760;52.480;13.422;2024-02-28T12:35:40;12.30;;;7.77;;
3491;SDS011;1760;52.480;13.422;2024-02-28T12:38:07;11.80;;;7.00;;
3491;SDS011;1760;52.480;13.422;2024-02-28T12:40:35;19.40;;;9.93;;
3491;SDS011;1760;52.480;13.422;2024-02-28T12:43:03;22.10;;;8.37;;
3491;SDS011;1760;52.480;13.422;2024-02-28T12:45:30;13.37;;;7.47;;
3491;SDS011;1760;52.480;13.422;2024-02-28T12:47:57;15.07;;;8.23;;
3491;SDS011;1760;52.480;13.422;2024-02-28T12:50:26;10.60;;;6.87;;
3491;SDS011;1760;52.480;13.422;2024-02-28T12:52:53;13.00;;;7.37;;
3491;SDS011;1760;52.480;13.422;2024-02-28T12:55:19;11.37;;;6.00;;
3491;SDS011;1760;52.480;13.422;2024-02-28T12:57:47;8.97;;;5.63;;
3491;SDS011;1760;52.480;13.422;2024-02-28T13:00:16;13.90;;;6.43;;
3491;SDS011;1760;52.480;13.422;2024-02-28T13:02:43;12.33;;;6.83;;
3491;SDS011;1760;52.480;13.422;2024-02-28T13:05:11;14.17;;;7.53;;
3491;SDS011;1760;52.480;13.422;2024-02-28T13:07:38;16.17;;;7.37;;
3491;SDS011;1760;52.480;13.422;2024-02-28T13:10:06;11.33;;;6.60;;
3491;SDS011;1760;52.480;13.422;2024-02-28T13:12:34;13.73;;;8.03;;
3491;SDS011;1760;52.480;13.422;2024-02-28T13:15:01;12.57;;;6.87;;
3491;SDS011;1760;52.480;13.422;2024-02-28T13:17:29;11.53;;;6.53;;
3491;SDS011;1760;52.480;13.422;2024-02-28T13:19:56;9.57;;;6.53;;
3491;SDS011;1760;52.480;13.422;2024-02-28T13:22:23;10.77;;;7.03;;
3491;SDS011;1760;52.480;13.422;2024-02-28T13:24:53;11.97;;;5.90;;
3491;SDS011;1760;52.480;13.422;2024-02-28T13:27:20;18.80;;;8.50;;
3491;SDS011;1760;52.480;13.422;2024-02-28T13:29:47;11.97;;;6.37;;
3491;SDS011;1760;52.480;13.422;2024-02-28T13:32:14;14.67;;;6.87;;
3491;SDS011;1760;52.480;13.422;2024-02-28T13:34:43;15.60;;;6.47;;
3491;SDS011;1760;52.480;13.422;2024-02-28T13:37:10;10.53;;;5.93;;
3491;SDS011;1760;52.480;13.422;2024-02-28T13:39:37;13.63;;;6.90;;
3491;SDS011;1760;52.480;13.422;2024-02-28T13:42:04;13.73;;;6.73;;
3491;SDS011;1760;52.480;13.422;2024-02-28T13:44:32;12.90;;;6.70;;
3491;SDS011;1760;52.480;13.422;2024-02-28T13:46:59;13.27;;;7.00;;
3491;SDS011;1760;52.480;13.422;2024-02-28T13:49:26;15.30;;;7.70;;
3491;SDS011;1760;52.480;13.422;2024-02-28T13:51:54;14.33;;;6.20;;
3491;SDS011;1760;52.480;13.422;2024-02-28T13:54:21;12.57;;;6.77;;
3491;SDS011;1760;52.480;13.422;2024-02-28T13:56:48;13.03;;;7.07;;
3491;SDS011;1760;52.480;13.422;2024-02-28T13:59:15;12.10;;;6.60;;
3491;SDS011;1760;52.480;13.422;2024-02-28T14:01:42;13.60;;;7.23;;
3491;SDS011;1760;52.480;13.422;2024-02-28T14:04:10;13.23;;;6.57;;
3491;SDS011;1760;52.480;13.422;2024-02-28T14:06:37;14.93;;;6.97;;
3491;SDS011;1760;52.480;13.422;2024-02-28T14:09:05;12.40;;;6.40;;
3491;SDS011;1760;52.480;13.422;2024-02-28T14:11:32;11.87;;;6.97;;
3491;SDS011;1760;52.480;13.422;2024-02-28T14:14:00;13.20;;;7.13;;
3491;SDS011;1760;52.480;13.422;2024-02-28T14:16:29;17.60;;;7.57;;
3491;SDS011;1760;52.480;13.422;2024-02-28T14:18:57;12.00;;;6.57;;
3491;SDS011;1760;52.480;13.422;2024-02-28T14:21:24;10.97;;;6.03;;
3491;SDS011;1760;52.480;13.422;2024-02-28T14:23:53;13.10;;;7.77;;
3491;SDS011;1760;52.480;13.422;2024-02-28T14:26:24;13.70;;;6.73;;
3491;SDS011;1760;52.480;13.422;2024-02-28T14:28:52;13.10;;;8.23;;
3491;SDS011;1760;52.480;13.422;2024-02-28T14:31:23;14.03;;;7.20;;
3491;SDS011;1760;52.480;13.422;2024-02-28T14:33:51;13.03;;;7.70;;
3491;SDS011;1760;52.480;13.422;2024-02-28T14:36:19;9.77;;;5.50;;
3491;SDS011;1760;52.480;13.422;2024-02-28T14:38:46;10.33;;;5.70;;
3491;SDS011;1760;52.480;13.422;2024-02-28T14:41:13;14.67;;;7.27;;
3491;SDS011;1760;52.480;13.422;2024-02-28T14:43:41;11.73;;;6.90;;
3491;SDS011;1760;52.480;13.422;2024-02-28T14:46:11;13.00;;;7.30;;
3491;SDS011;1760;52.480;13.422;2024-02-28T14:48:38;12.43;;;6.80;;
3491;SDS011;1760;52.480;13.422;2024-02-28T14:51:09;12.43;;;7.00;;
3491;SDS011;1760;52.480;13.422;2024-02-28T14:53:36;13.43;;;6.97;;
3491;SDS011;1760;52.480;13.422;2024-02-28T14:56:03;11.67;;;5.50;;
3491;SDS011;1760;52.480;13.422;2024-02-28T14:58:30;9.90;;;5.90;;
3491;SDS011;1760;52.480;13.422;2024-02-28T15:00:58;11.13;;;5.90;;
3491;SDS011;1760;52.480;13.422;2024-02-28T15:03:27;12.00;;;6.53;;
3491;SDS011;1760;52.480;13.422;2024-02-28T15:05:54;11.83;;;5.67;;
3491;SDS011;1760;52.480;13.422;2024-02-28T15:08:21;13.60;;;6.57;;